createdAt,value
2019-05-11T11:30:33.588Z,1007.62
2019-05-11T11:31:33.569Z,1007.65
2019-05-11T11:32:33.561Z,1007.68
2019-05-11T11:33:33.550Z,1007.68
2019-05-11T11:34:33.543Z,1007.63
2019-05-11T11:35:33.536Z,1007.68
2019-05-11T11:36:33.521Z,1007.64
2019-05-11T11:37:33.526Z,1007.58
2019-05-11T11:38:33.491Z,1007.54
2019-05-11T11:39:33.480Z,1007.54
2019-05-11T11:40:33.478Z,1007.48
2019-05-11T11:41:33.459Z,1007.55
2019-05-11T11:42:33.529Z,1007.51
2019-05-11T11:43:33.438Z,1007.61
2019-05-11T11:44:33.427Z,1007.58
2019-05-11T11:45:33.425Z,1007.57
2019-05-11T11:46:47.518Z,1007.58
2019-05-11T11:47:34.405Z,1007.62
2019-05-11T11:48:33.381Z,1007.63
2019-05-11T11:49:33.371Z,1007.68
2019-05-11T11:50:33.371Z,1007.63
2019-05-11T11:51:33.349Z,1007.54
2019-05-11T11:52:33.337Z,1007.66
2019-05-11T11:53:33.326Z,1007.68
2019-05-11T11:54:33.316Z,1007.67
2019-05-11T11:55:33.319Z,1007.78
2019-05-11T11:56:33.295Z,1007.61
2019-05-11T11:57:33.281Z,1007.57
2019-05-11T11:58:33.270Z,1007.67
2019-05-11T11:59:33.261Z,1007.68
2019-05-11T12:00:33.250Z,1007.81
2019-05-11T12:01:33.247Z,1007.80
2019-05-11T12:02:33.226Z,1007.80
2019-05-11T12:03:33.217Z,1007.71
2019-05-11T12:04:33.208Z,1007.86
2019-05-11T12:05:33.192Z,1007.75
2019-05-11T12:06:33.191Z,1007.75
2019-05-11T12:07:33.173Z,1007.83
2019-05-11T12:08:33.163Z,1007.75
2019-05-11T12:09:33.149Z,1007.81
2019-05-11T12:10:33.138Z,1007.77
2019-05-11T12:11:33.136Z,1007.83
2019-05-11T12:12:33.114Z,1007.81
2019-05-11T12:13:33.103Z,1007.76
2019-05-11T12:14:33.094Z,1007.76
2019-05-11T12:15:33.096Z,1007.83
2019-05-11T12:16:33.080Z,1007.80
2019-05-11T12:17:33.060Z,1007.92
2019-05-11T12:18:33.048Z,1007.87
2019-05-11T12:19:33.041Z,1007.91
2019-05-11T12:20:33.031Z,1007.98
2019-05-11T12:21:33.023Z,1008.01
2019-05-11T12:22:33.015Z,1007.96
2019-05-11T12:23:33.002Z,1007.95
2019-05-11T12:24:33.002Z,1007.92
2019-05-11T12:25:32.970Z,1008.00
2019-05-11T12:26:32.968Z,1008.01
2019-05-11T12:27:32.949Z,1007.90
2019-05-11T12:28:32.936Z,1008.12
2019-05-11T12:29:32.927Z,1008.12
2019-05-11T12:30:32.915Z,1008.10
2019-05-11T12:31:32.913Z,1008.02
2019-05-11T12:32:32.892Z,1008.00
2019-05-11T12:33:32.882Z,1008.05
2019-05-11T12:34:32.874Z,1008.13
2019-05-11T12:35:32.864Z,1008.20
2019-05-11T12:36:32.860Z,1008.18
2019-05-11T12:37:32.837Z,1008.18
2019-05-11T12:38:32.826Z,1008.05
2019-05-11T12:39:32.819Z,1008.11
2019-05-11T12:40:32.810Z,1008.11
2019-05-11T12:41:32.805Z,1008.24
2019-05-11T12:42:32.783Z,1008.23
2019-05-11T12:43:32.800Z,1008.14
2019-05-11T12:44:32.762Z,1008.25
2019-05-11T12:45:32.754Z,1008.28
2019-05-11T12:46:32.748Z,1008.26
2019-05-11T12:47:32.732Z,1008.27
2019-05-11T12:48:32.719Z,1008.33
2019-05-11T12:49:32.708Z,1008.32
2019-05-11T12:50:32.695Z,1008.30
2019-05-11T12:51:32.695Z,1008.37
2019-05-11T12:52:32.676Z,1008.36
2019-05-11T12:53:32.664Z,1008.30
2019-05-11T12:54:34.100Z,1008.35
2019-05-11T12:55:32.643Z,1008.32
2019-05-11T12:56:32.639Z,1008.35
2019-05-11T12:57:32.618Z,1008.43
2019-05-11T12:58:32.607Z,1008.47
2019-05-11T12:59:32.596Z,1008.54
2019-05-11T13:00:32.587Z,1008.45
2019-05-11T13:01:32.587Z,1008.54
2019-05-11T13:02:32.573Z,1008.53
2019-05-11T13:03:32.555Z,1008.51
2019-05-11T13:04:32.543Z,1008.56
2019-05-11T13:05:32.530Z,1008.62
2019-05-11T13:06:32.522Z,1008.59
2019-05-11T13:07:32.516Z,1008.56
2019-05-11T13:08:32.498Z,1008.62
2019-05-11T13:09:32.485Z,1008.65
2019-05-11T13:10:32.477Z,1008.68
2019-05-11T13:11:32.463Z,1008.66
2019-05-11T13:12:32.465Z,1008.71
2019-05-11T13:13:32.442Z,1008.75
2019-05-11T13:14:32.431Z,1008.70
2019-05-11T13:15:32.419Z,1008.80
2019-05-11T13:16:32.411Z,1008.76
2019-05-11T13:17:36.946Z,1008.78
2019-05-11T13:18:33.387Z,1008.70
2019-05-11T13:19:32.375Z,1008.79
2019-05-11T13:20:32.365Z,1008.84
2019-05-11T13:21:32.354Z,1008.81
2019-05-11T13:22:32.352Z,1008.83
2019-05-11T13:23:32.331Z,1008.83
2019-05-11T13:24:32.322Z,1008.86
2019-05-11T13:25:32.310Z,1008.85
2019-05-11T13:26:32.302Z,1008.98
2019-05-11T13:27:32.296Z,1008.99
2019-05-11T13:28:32.276Z,1008.93
2019-05-11T13:29:32.266Z,1008.99
2019-05-11T13:30:32.254Z,1009.02
2019-05-11T13:31:32.244Z,1009.01
2019-05-11T13:32:32.244Z,1008.95
2019-05-11T13:33:32.221Z,1009.03
2019-05-11T13:34:32.212Z,1009.09
2019-05-11T13:35:32.199Z,1009.22
2019-05-11T13:36:32.194Z,1009.21
2019-05-11T13:37:32.191Z,1009.17
2019-05-11T13:38:32.166Z,1009.19
2019-05-11T13:39:32.162Z,1009.32
2019-05-11T13:40:32.146Z,1009.31
2019-05-11T13:41:32.134Z,1009.33
2019-05-11T13:42:32.135Z,1009.42
2019-05-11T13:43:32.114Z,1009.49
2019-05-11T13:44:32.099Z,1009.51
2019-05-11T13:45:32.092Z,1009.51
2019-05-11T13:46:32.079Z,1009.45
2019-05-11T13:47:32.078Z,1009.50
2019-05-11T13:48:32.055Z,1009.51
2019-05-11T13:49:32.696Z,1009.46
2019-05-11T13:50:32.035Z,1009.41
2019-05-11T13:51:32.022Z,1009.50
2019-05-11T13:52:32.023Z,1009.57
2019-05-11T13:53:32.003Z,1009.45
2019-05-11T13:54:31.990Z,1009.46
2019-05-11T13:55:31.979Z,1009.63
2019-05-11T13:56:32.423Z,1009.59
2019-05-11T13:57:31.963Z,1009.71
2019-05-11T13:58:31.945Z,1009.63
2019-05-11T13:59:31.933Z,1009.68
2019-05-11T14:00:31.925Z,1009.65
2019-05-11T14:01:31.912Z,1009.75
2019-05-11T14:02:31.912Z,1009.74
2019-05-11T14:03:31.888Z,1009.79
2019-05-11T14:04:31.880Z,1009.74
2019-05-11T14:05:31.868Z,1009.80
2019-05-11T14:06:31.866Z,1009.85
2019-05-11T14:07:31.883Z,1009.84
2019-05-11T14:08:31.835Z,1009.87
2019-05-11T14:09:31.826Z,1009.96
2019-05-11T14:10:31.811Z,1009.92
2019-05-11T14:11:31.801Z,1009.95
2019-05-11T14:12:31.805Z,1009.99
2019-05-11T14:13:31.779Z,1010.02
2019-05-11T14:14:31.770Z,1010.03
2019-05-11T14:15:31.757Z,1009.99
2019-05-11T14:16:31.748Z,1010.00
2019-05-11T14:17:32.039Z,1010.05
2019-05-11T14:18:31.723Z,1010.02
2019-05-11T14:19:31.721Z,1010.10
2019-05-11T14:20:31.701Z,1010.10
2019-05-11T14:21:31.692Z,1010.24
2019-05-11T14:22:31.690Z,1010.34
2019-05-11T14:23:31.673Z,1010.27
2019-05-11T14:24:31.663Z,1010.18
2019-05-11T14:25:31.648Z,1010.31
2019-05-11T14:26:31.638Z,1010.28
2019-05-11T14:27:31.638Z,1010.21
2019-05-11T14:28:31.621Z,1010.25
2019-05-11T14:29:31.609Z,1010.35
2019-05-11T14:30:31.593Z,1010.38
2019-05-11T14:31:31.581Z,1010.41
2019-05-11T14:32:31.583Z,1010.38
2019-05-11T14:33:31.560Z,1010.47
2019-05-11T14:34:31.550Z,1010.42
2019-05-11T14:35:31.538Z,1010.41
2019-05-11T14:36:31.525Z,1010.48
2019-05-11T14:37:31.531Z,1010.49
2019-05-11T14:38:31.510Z,1010.57
2019-05-11T14:39:31.496Z,1010.54
2019-05-11T14:40:31.486Z,1010.45
2019-05-11T14:41:31.473Z,1010.47
2019-05-11T14:42:31.459Z,1010.41
2019-05-11T14:43:31.460Z,1010.56
2019-05-11T14:44:31.441Z,1010.60
2019-05-11T14:45:31.434Z,1010.60
2019-05-11T14:46:31.420Z,1010.70
2019-05-11T14:47:31.406Z,1010.57
2019-05-11T14:48:31.406Z,1010.63
2019-05-11T14:49:31.384Z,1010.68
2019-05-11T14:50:31.375Z,1010.68
2019-05-11T14:51:31.366Z,1010.73
2019-05-11T14:52:31.353Z,1010.74
2019-05-11T14:53:31.351Z,1010.78
2019-05-11T14:54:31.331Z,1010.82
2019-05-11T14:55:31.319Z,1010.87
2019-05-11T14:56:31.310Z,1010.93
2019-05-11T14:57:31.298Z,1010.91
2019-05-11T14:58:31.296Z,1010.91
2019-05-11T14:59:31.275Z,1011.01
2019-05-11T15:00:31.263Z,1011.08
2019-05-11T15:01:31.253Z,1011.12
2019-05-11T15:02:31.243Z,1011.17
2019-05-11T15:03:31.245Z,1011.21
2019-05-11T15:04:31.220Z,1011.26
2019-05-11T15:05:31.217Z,1011.07
2019-05-11T15:06:31.202Z,1011.24
2019-05-11T15:07:31.192Z,1011.26
2019-05-11T15:08:31.186Z,1011.28
2019-05-11T15:09:31.164Z,1011.33
2019-05-11T15:10:31.152Z,1011.17
2019-05-11T15:11:31.141Z,1011.31
2019-05-11T15:12:31.137Z,1011.30
2019-05-11T15:13:31.127Z,1011.26
2019-05-11T15:14:31.107Z,1011.30
2019-05-11T15:15:31.107Z,1011.11
2019-05-11T15:16:31.094Z,1011.21
2019-05-11T15:17:31.074Z,1011.13
2019-05-11T15:18:38.651Z,1011.25
2019-05-11T15:19:32.069Z,1011.25
2019-05-11T15:20:31.041Z,1011.23
2019-05-11T15:21:31.035Z,1011.28
2019-05-11T15:22:31.023Z,1011.31
2019-05-11T15:23:31.017Z,1011.38
2019-05-11T15:24:31.004Z,1011.30
2019-05-11T15:25:30.987Z,1011.33
2019-05-11T15:26:30.978Z,1011.42
2019-05-11T15:27:30.978Z,1011.42
2019-05-11T15:28:30.961Z,1011.44
2019-05-11T15:29:30.945Z,1011.49
2019-05-11T15:30:30.931Z,1011.53
2019-05-11T15:31:30.930Z,1011.50
2019-05-11T15:32:30.916Z,1011.45
2019-05-11T15:33:30.910Z,1011.51
2019-05-11T15:34:30.895Z,1011.48
2019-05-11T15:35:30.876Z,1011.57
2019-05-11T15:36:30.865Z,1011.59
2019-05-11T15:37:30.855Z,1011.56
2019-05-11T15:38:30.851Z,1011.56
2019-05-11T15:39:30.836Z,1011.53
2019-05-11T15:40:30.824Z,1011.55
2019-05-11T15:41:30.819Z,1011.60
2019-05-11T15:42:30.800Z,1011.61
2019-05-11T15:43:30.801Z,1011.66
2019-05-11T15:44:30.779Z,1011.68
2019-05-11T15:45:30.766Z,1011.68
2019-05-11T15:46:30.759Z,1011.68
2019-05-11T15:47:30.742Z,1011.72
2019-05-11T15:48:30.745Z,1011.72
2019-05-11T15:49:30.721Z,1011.72
2019-05-11T15:50:30.708Z,1011.71
2019-05-11T15:51:30.697Z,1011.76
2019-05-11T15:52:30.691Z,1011.77
2019-05-11T15:53:30.694Z,1011.72
2019-05-11T15:54:30.667Z,1011.82
2019-05-11T15:55:30.654Z,1011.82
2019-05-11T15:56:30.645Z,1011.86
2019-05-11T15:57:30.634Z,1011.89
2019-05-11T15:58:30.623Z,1011.94
2019-05-11T15:59:30.790Z,1012.04
2019-05-11T16:00:30.603Z,1011.98
2019-05-11T16:01:30.589Z,1012.04
2019-05-11T16:02:30.579Z,1012.04
2019-05-11T16:03:30.568Z,1012.05
2019-05-11T16:04:30.564Z,1012.07
2019-05-11T16:05:30.548Z,1012.06
2019-05-11T16:06:30.536Z,1012.09
2019-05-11T16:07:30.527Z,1012.10
2019-05-11T16:08:30.511Z,1012.09
2019-05-11T16:09:30.512Z,1012.18
2019-05-11T16:10:30.488Z,1012.20
2019-05-11T16:11:30.476Z,1012.16
2019-05-11T16:12:30.469Z,1012.18
2019-05-11T16:13:30.455Z,1012.27
2019-05-11T16:14:30.453Z,1012.30
2019-05-11T16:15:30.432Z,1012.28
2019-05-11T16:16:30.423Z,1012.27
2019-05-11T16:17:30.409Z,1012.27
2019-05-11T16:18:30.398Z,1012.33
2019-05-11T16:19:30.397Z,1012.32
2019-05-11T16:20:30.376Z,1012.37
2019-05-11T16:21:30.371Z,1012.45
2019-05-11T16:22:30.354Z,1012.47
2019-05-11T16:23:30.342Z,1012.51
2019-05-11T16:24:30.340Z,1012.51
2019-05-11T16:25:30.320Z,1012.43
2019-05-11T16:26:30.309Z,1012.45
2019-05-11T16:27:30.306Z,1012.44
2019-05-11T16:28:30.915Z,1012.58
2019-05-11T16:29:30.284Z,1012.54
2019-05-11T16:30:30.269Z,1012.57
2019-05-11T16:31:30.256Z,1012.58
2019-05-11T16:32:30.242Z,1012.52
2019-05-11T16:33:30.231Z,1012.61
2019-05-11T16:34:30.230Z,1012.55
2019-05-11T16:35:30.210Z,1012.66
2019-05-11T16:36:30.197Z,1012.63
2019-05-11T16:37:30.185Z,1012.61
2019-05-11T16:38:30.177Z,1012.70
2019-05-11T16:39:30.171Z,1012.72
2019-05-11T16:40:30.153Z,1012.76
2019-05-11T16:41:30.141Z,1012.76
2019-05-11T16:42:30.661Z,1012.75
2019-05-11T16:43:30.130Z,1012.79
2019-05-11T16:44:30.116Z,1012.75
2019-05-11T16:45:30.107Z,1012.78
2019-05-11T16:46:30.090Z,1012.80
2019-05-11T16:47:30.076Z,1012.78
2019-05-11T16:48:30.065Z,1012.84
2019-05-11T16:49:32.467Z,1012.84
2019-05-11T16:50:30.056Z,1012.84
2019-05-11T16:51:30.031Z,1012.78
2019-05-11T16:52:30.018Z,1012.86
2019-05-11T16:53:30.010Z,1012.89
2019-05-11T16:54:30.001Z,1012.87
2019-05-11T16:55:29.993Z,1012.90
2019-05-11T16:56:29.973Z,1012.90
2019-05-11T16:57:29.961Z,1012.89
2019-05-11T16:58:29.952Z,1012.94
2019-05-11T16:59:29.941Z,1012.97
2019-05-11T17:00:29.937Z,1012.91
2019-05-11T17:01:29.919Z,1012.96
2019-05-11T17:02:30.424Z,1013.00
2019-05-11T17:03:29.894Z,1012.98
2019-05-11T17:04:31.313Z,1012.99
2019-05-11T17:05:33.538Z,1013.01
2019-05-11T17:06:31.857Z,1013.11
2019-05-11T17:07:30.096Z,1013.13
2019-05-11T17:08:29.838Z,1013.11
2019-05-11T17:09:29.831Z,1013.17
2019-05-11T17:10:29.824Z,1013.14
2019-05-11T17:11:29.805Z,1013.16
2019-05-11T17:12:29.794Z,1013.13
2019-05-11T17:13:29.784Z,1013.26
2019-05-11T17:14:29.770Z,1013.23
2019-05-11T17:15:29.774Z,1013.24
2019-05-11T17:16:29.751Z,1013.29
2019-05-11T17:17:29.755Z,1013.29
2019-05-11T17:18:29.729Z,1013.39
2019-05-11T17:19:42.880Z,1013.32
2019-05-11T17:20:30.724Z,1013.44
2019-05-11T17:21:30.047Z,1013.45
2019-05-11T17:22:29.681Z,1013.45
2019-05-11T17:23:31.093Z,1013.49
2019-05-11T17:24:29.659Z,1013.48
2019-05-11T17:25:29.659Z,1013.51
2019-05-11T17:26:29.639Z,1013.58
2019-05-11T17:27:29.626Z,1013.57
2019-05-11T17:28:29.616Z,1013.59
2019-05-11T17:29:29.605Z,1013.64
2019-05-11T17:30:29.601Z,1013.62
2019-05-11T17:31:29.581Z,1013.64
2019-05-11T17:32:29.572Z,1013.66
2019-05-11T17:33:29.561Z,1013.63
2019-05-11T17:34:29.547Z,1013.67
2019-05-11T17:35:29.546Z,1013.66
2019-05-11T17:36:29.525Z,1013.65
2019-05-11T17:37:29.513Z,1013.70
2019-05-11T17:38:29.506Z,1013.72
2019-05-11T17:39:29.493Z,1013.77
2019-05-11T17:40:29.491Z,1013.74
2019-05-11T17:41:29.469Z,1013.70
2019-05-11T17:42:29.457Z,1013.81
2019-05-11T17:43:29.448Z,1013.85
2019-05-11T17:44:29.438Z,1013.84
2019-05-11T17:45:29.432Z,1013.81
2019-05-11T17:46:29.414Z,1013.86
2019-05-11T17:47:29.401Z,1013.90
2019-05-11T17:48:29.393Z,1013.89
2019-05-11T17:49:29.382Z,1013.90
2019-05-11T17:50:29.381Z,1013.85
2019-05-11T17:51:29.361Z,1013.93
2019-05-11T17:52:29.345Z,1013.96
2019-05-11T17:53:29.336Z,1013.89
2019-05-11T17:54:29.324Z,1013.95
2019-05-11T17:55:29.314Z,1013.91
2019-05-11T17:56:29.309Z,1013.95
2019-05-11T17:57:29.290Z,1013.90
2019-05-11T17:58:29.429Z,1013.89
2019-05-11T17:59:29.268Z,1013.91
2019-05-11T18:00:29.259Z,1013.89
2019-05-11T18:01:29.260Z,1013.86
2019-05-11T18:02:29.238Z,1013.88
2019-05-11T18:03:29.226Z,1013.94
2019-05-11T18:04:29.212Z,1013.94
2019-05-11T18:05:29.202Z,1013.96
2019-05-11T18:06:29.203Z,1013.96
2019-05-11T18:07:30.924Z,1014.00
2019-05-11T18:08:30.956Z,1014.06
2019-05-11T18:09:29.155Z,1014.08
2019-05-11T18:10:29.146Z,1014.09
2019-05-11T18:11:29.896Z,1014.10
2019-05-11T18:12:29.125Z,1014.18
2019-05-11T18:13:29.113Z,1014.13
2019-05-11T18:14:29.102Z,1014.16
2019-05-11T18:15:29.099Z,1014.19
2019-05-11T18:16:29.090Z,1014.22
2019-05-11T18:17:29.065Z,1014.21
2019-05-11T18:18:29.344Z,1014.29
2019-05-11T18:19:29.042Z,1014.33
2019-05-11T18:20:29.035Z,1014.36
2019-05-11T18:21:29.034Z,1014.40
2019-05-11T18:22:29.011Z,1014.36
2019-05-11T18:23:28.999Z,1014.40
2019-05-11T18:24:28.989Z,1014.45
2019-05-11T18:25:28.993Z,1014.42
2019-05-11T18:26:28.985Z,1014.45
2019-05-11T18:27:28.956Z,1014.47
2019-05-11T18:28:29.317Z,1014.45
2019-05-11T18:29:29.039Z,1014.50
2019-05-11T18:30:29.436Z,1014.49
2019-05-11T18:31:28.924Z,1014.51
2019-05-11T18:32:28.901Z,1014.52
2019-05-11T18:33:28.894Z,1014.54
2019-05-11T18:34:28.880Z,1014.61
2019-05-11T18:35:28.875Z,1014.59
2019-05-11T18:36:29.043Z,1014.62
2019-05-11T18:37:28.859Z,1014.63
2019-05-11T18:38:28.832Z,1014.62
2019-05-11T18:39:28.820Z,1014.63
2019-05-11T18:40:28.817Z,1014.75
2019-05-11T18:41:28.800Z,1014.65
2019-05-11T18:42:28.826Z,1014.74
2019-05-11T18:43:28.781Z,1014.75
2019-05-11T18:44:28.765Z,1014.71
2019-05-11T18:45:28.925Z,1014.72
2019-05-11T18:46:28.743Z,1014.76
2019-05-11T18:47:29.947Z,1014.77
2019-05-11T18:48:29.193Z,1014.86
2019-05-11T18:49:28.711Z,1014.85
2019-05-11T18:50:30.929Z,1014.88
2019-05-11T18:51:28.688Z,1014.93
2019-05-11T18:52:28.688Z,1014.90
2019-05-11T18:53:29.099Z,1014.90
2019-05-11T18:54:28.653Z,1014.97
2019-05-11T18:55:28.642Z,1015.00
2019-05-11T18:56:28.704Z,1015.07
2019-05-11T18:57:28.630Z,1015.04
2019-05-11T18:58:28.608Z,1015.10
2019-05-11T18:59:28.600Z,1015.11
2019-05-11T19:00:28.589Z,1015.13
2019-05-11T19:01:28.687Z,1015.17
2019-05-11T19:02:28.575Z,1015.21
2019-05-11T19:03:28.554Z,1015.23
2019-05-11T19:04:28.830Z,1015.27
2019-05-11T19:05:29.222Z,1015.25
2019-05-11T19:06:28.634Z,1015.27
2019-05-11T19:07:28.519Z,1015.34
2019-05-11T19:08:28.496Z,1015.37
2019-05-11T19:09:28.522Z,1015.35
2019-05-11T19:10:28.476Z,1015.43
2019-05-11T19:11:29.049Z,1015.41
2019-05-11T19:12:28.463Z,1015.46
2019-05-11T19:13:28.485Z,1015.48
2019-05-11T19:14:28.435Z,1015.45
2019-05-11T19:15:28.443Z,1015.50
2019-05-11T19:16:28.893Z,1015.54
2019-05-11T19:17:29.105Z,1015.53
2019-05-11T19:18:28.432Z,1015.59
2019-05-11T19:19:28.378Z,1015.55
2019-05-11T19:20:28.550Z,1015.55
2019-05-11T19:21:28.354Z,1015.58
2019-05-11T19:22:28.889Z,1015.62
2019-05-11T19:23:28.864Z,1015.68
2019-05-11T19:24:28.320Z,1015.70
2019-05-11T19:25:28.314Z,1015.72
2019-05-11T19:26:28.295Z,1015.74
2019-05-11T19:27:28.809Z,1015.78
2019-05-11T19:28:28.334Z,1015.83
2019-05-11T19:29:28.380Z,1015.83
2019-05-11T19:30:28.254Z,1015.88
2019-05-11T19:31:28.256Z,1015.84
2019-05-11T19:32:28.390Z,1015.87
2019-05-11T19:33:28.217Z,1015.91
2019-05-11T19:34:28.257Z,1015.99
2019-05-11T19:35:28.791Z,1015.91
2019-05-11T19:36:28.190Z,1015.96
2019-05-11T19:37:28.175Z,1016.00
2019-05-11T19:38:28.234Z,1015.97
2019-05-11T19:39:28.159Z,1016.00
2019-05-11T19:40:28.142Z,1016.06
2019-05-11T19:41:28.129Z,1016.11
2019-05-11T19:42:28.568Z,1016.11
2019-05-11T19:43:28.114Z,1016.18
2019-05-11T19:44:28.113Z,1016.20
2019-05-11T19:45:29.340Z,1016.20
2019-05-11T19:46:28.208Z,1016.23
2019-05-11T19:47:28.292Z,1016.29
2019-05-11T19:48:28.240Z,1016.24
2019-05-11T19:49:28.066Z,1016.25
2019-05-11T19:50:28.032Z,1016.25
2019-05-11T19:51:29.061Z,1016.32
2019-05-11T19:52:28.261Z,1016.38
2019-05-11T19:53:28.201Z,1016.44
2019-05-11T19:54:28.911Z,1016.43
2019-05-11T19:55:28.672Z,1016.42
2019-05-11T19:56:28.982Z,1016.51
2019-05-11T19:57:28.346Z,1016.51
2019-05-11T19:58:28.887Z,1016.47
2019-05-11T19:59:28.070Z,1016.54
2019-05-11T20:00:27.917Z,1016.55
2019-05-11T20:01:28.023Z,1016.57
2019-05-11T20:02:28.441Z,1016.57
2019-05-11T20:03:28.518Z,1016.64
2019-05-11T20:04:28.417Z,1016.62
2019-05-11T20:05:28.833Z,1016.71
2019-05-11T20:06:28.187Z,1016.69
2019-05-11T20:07:27.839Z,1016.71
2019-05-11T20:08:29.077Z,1016.71
2019-05-11T20:09:28.339Z,1016.67
2019-05-11T20:10:27.946Z,1016.66
2019-05-11T20:11:28.061Z,1016.74
2019-05-11T20:12:28.374Z,1016.71
2019-05-11T20:13:28.362Z,1016.73
2019-05-11T20:14:28.361Z,1016.73
2019-05-11T20:15:27.751Z,1016.74
2019-05-11T20:16:27.738Z,1016.74
2019-05-11T20:17:28.848Z,1016.86
2019-05-11T20:18:28.857Z,1016.86
2019-05-11T20:19:28.250Z,1016.88
2019-05-11T20:20:28.466Z,1016.88
2019-05-11T20:21:29.045Z,1016.93
2019-05-11T20:22:28.179Z,1016.96
2019-05-11T20:23:27.666Z,1016.97
2019-05-11T20:24:27.938Z,1017.04
2019-05-11T20:25:28.769Z,1017.06
2019-05-11T20:26:28.588Z,1017.12
2019-05-11T20:27:28.214Z,1017.09
2019-05-11T20:28:28.460Z,1017.15
2019-05-11T20:29:27.812Z,1017.14
2019-05-11T20:30:27.578Z,1017.19
2019-05-11T20:31:27.812Z,1017.15
2019-05-11T20:32:28.431Z,1017.27
2019-05-11T20:33:27.934Z,1017.28
2019-05-11T20:34:28.855Z,1017.28
2019-05-11T20:35:28.064Z,1017.37
2019-05-11T20:36:27.513Z,1017.36
2019-05-11T20:37:28.759Z,1017.41
2019-05-11T20:38:27.997Z,1017.42
2019-05-11T20:39:28.661Z,1017.46
2019-05-11T20:40:28.522Z,1017.52
2019-05-11T20:41:28.005Z,1017.49
2019-05-11T20:42:27.445Z,1017.49
2019-05-11T20:43:27.874Z,1017.50
2019-05-11T20:44:28.671Z,1017.52
2019-05-11T20:45:28.516Z,1017.56
2019-05-11T20:46:27.812Z,1017.53
2019-05-11T20:47:28.737Z,1017.60
2019-05-11T20:48:27.853Z,1017.60
2019-05-11T20:49:28.198Z,1017.70
2019-05-11T20:50:27.357Z,1017.67
2019-05-11T20:51:34.137Z,1017.74
2019-05-11T20:52:28.482Z,1017.77
2019-05-11T20:53:28.640Z,1017.80
2019-05-11T20:54:28.174Z,1017.78
2019-05-11T20:55:28.363Z,1017.74
2019-05-11T20:56:28.405Z,1017.76
2019-05-11T20:57:28.461Z,1017.76
2019-05-11T20:58:28.914Z,1017.74
2019-05-11T20:59:28.941Z,1017.79
2019-05-11T21:00:27.958Z,1017.79
2019-05-11T21:01:28.559Z,1017.80
2019-05-11T21:02:28.839Z,1017.77
2019-05-11T21:03:27.807Z,1017.81
2019-05-11T21:04:28.167Z,1017.81
